Aérodrome :
LOGIN :

S'inscrire | Disclaimer

   EN    FR    IT 

 










Légende :    VFR   VFR Marginal   IFR   IFR Intensif   IFR Très Intensif
Visi : 
Plafond : 
>= 8 km
>= 3000ft
5 à 8 km
1000 à 3000 ft
1500m à 5 km
500 à 1000 ft
800 à 1500m
200 à 500 ft
< 800m
< 200 ft
Symboles :   Orages  Brouillard  Fortes neiges  Fortes précipitations  Vent > 20 kt
SIGMETs :   Divers  Orages  Givrage  Turbulence  Onde Orograph.  Cendres Volcan.






- Altitude de l'aérodrome : 364 ft
- Code IATA : FRA


EDDF - Frankfurt Int.

DERNIER METAR :
  • 110450Z 25002KT 9999 -RA FEW030 12/12 Q1007 NOSIG

METARs EXPIRÉS :
  • 110420Z 21004KT 9999 -RA FEW004 12/12 Q1008 NOSIG
  • 110350Z VRB02KT 9999 -RA BCFG FEW004 12/11 Q1008 TEMPO 4000
  • 110320Z 19002KT 9999 BCFG FEW004 12/12 Q1008 TEMPO 4000
  • 110250Z 31003KT 8000 -RA FEW004 12/12 Q1008 TEMPO 4000
  • 110220Z 24003KT 3500 -RA BR FEW006 SCT040 12/12 Q1009 TEMPO 2500 BKN006

TAF TAF EDDF
Valide du 11 à 00h jusqu'au 12 à 06h UTC


102300Z 1100/1206 24004KT 9999 FEW005 BKN045
PROB30
TEMPO 1100/1107 4500 -RADZ BR BKN005
TEMPO 1107/1113 RA SCT010 BKN020TCU
BECMG 1117/1120 SCT040



MET'MAP, la Météo Aéronautique d'un coup d'oeil ! - Copyright ORBIFLY Décembre 2007 - Disclaimer

ORBIFLY MET'MAP TEAM :

Programmation & Développement : Alexandra Zaïnal
Sur une idée originale de : Baudouin d'Aumeries
Assistance à la programmation : Marc-Olivier Méhu
Soutien technique & logistique : Manuel Goepfert

Contact : metmap@orbifly.com




SOURCES & CREDITS :

   NOAA